createdAt,value
2023-05-03T00:01:01.471Z,4.93
2023-05-03T00:03:29.075Z,4.93
2023-05-03T00:05:57.706Z,4.94
2023-05-03T00:08:24.245Z,4.87
2023-05-03T00:10:52.868Z,4.78
2023-05-03T00:13:19.388Z,4.70
2023-05-03T00:15:48.238Z,4.62
2023-05-03T00:18:14.718Z,4.60
2023-05-03T00:20:41.279Z,4.59
2023-05-03T00:23:10.302Z,4.56
2023-05-03T00:25:41.711Z,4.46
2023-05-03T00:28:08.680Z,4.38
2023-05-03T00:30:37.373Z,4.29
2023-05-03T00:33:03.946Z,4.26
2023-05-03T00:35:32.840Z,4.27
2023-05-03T00:37:59.275Z,4.33
2023-05-03T00:40:27.871Z,4.32
2023-05-03T00:42:54.339Z,4.25
2023-05-03T00:45:23.532Z,4.22
2023-05-03T00:47:50.297Z,4.17
2023-05-03T00:50:19.310Z,4.14
2023-05-03T00:52:50.861Z,4.09
2023-05-03T00:55:20.185Z,4.11
2023-05-03T00:57:46.608Z,4.11
2023-05-03T01:00:16.472Z,4.13
2023-05-03T01:02:47.746Z,4.14
2023-05-03T01:05:16.834Z,4.05
2023-05-03T01:08:20.918Z,3.96
2023-05-03T01:11:08.667Z,3.92
2023-05-03T01:13:50.782Z,3.95
2023-05-03T01:16:17.280Z,3.99
2023-05-03T01:18:49.763Z,3.98
2023-05-03T01:21:22.773Z,3.98
2023-05-03T01:23:52.282Z,3.94
2023-05-03T01:26:28.110Z,3.91
2023-05-03T01:28:55.504Z,3.88
2023-05-03T01:31:28.855Z,3.86
2023-05-03T01:34:03.444Z,3.85
2023-05-03T01:36:35.513Z,3.80
2023-05-03T01:39:10.661Z,3.77
2023-05-03T01:41:42.083Z,3.78
2023-05-03T01:44:10.701Z,3.78
2023-05-03T01:46:50.614Z,3.75
2023-05-03T01:49:21.854Z,3.71
2023-05-03T01:51:48.430Z,3.70
2023-05-03T01:54:15.100Z,3.71
2023-05-03T01:56:41.642Z,3.67
2023-05-03T01:59:08.756Z,3.60
2023-05-03T02:01:37.771Z,3.57
2023-05-03T02:04:04.436Z,3.56
2023-05-03T02:06:31.690Z,3.53
2023-05-03T02:09:00.772Z,3.55
2023-05-03T02:11:27.303Z,3.55
2023-05-03T02:13:53.964Z,3.56
2023-05-03T02:16:20.838Z,3.56
2023-05-03T02:18:49.447Z,3.53
2023-05-03T02:21:16.264Z,3.48
2023-05-03T02:23:44.978Z,3.47
2023-05-03T02:26:11.460Z,3.41
2023-05-03T02:28:38.036Z,3.38
2023-05-03T02:31:07.170Z,3.27
2023-05-03T02:33:33.780Z,3.21
2023-05-03T02:36:00.768Z,3.14
2023-05-03T02:38:33.070Z,3.01
2023-05-03T02:41:02.194Z,2.94
2023-05-03T02:43:31.405Z,2.95
2023-05-03T02:46:00.211Z,2.93
2023-05-03T02:48:29.400Z,2.92
2023-05-03T02:50:57.961Z,2.93
2023-05-03T02:53:26.829Z,2.93
2023-05-03T02:55:55.799Z,2.88
2023-05-03T02:58:24.387Z,2.77
2023-05-03T03:00:51.198Z,2.63
2023-05-03T03:03:22.679Z,2.53
2023-05-03T03:05:53.782Z,2.47
2023-05-03T03:08:22.578Z,2.48
2023-05-03T03:10:49.686Z,2.46
2023-05-03T03:13:18.390Z,2.51
2023-05-03T03:15:46.166Z,2.55
2023-05-03T03:18:13.758Z,2.50
2023-05-03T03:20:43.449Z,2.48
2023-05-03T03:23:10.110Z,2.48
2023-05-03T03:25:37.644Z,2.49
2023-05-03T03:28:04.782Z,2.49
2023-05-03T03:30:34.067Z,2.48
2023-05-03T03:33:05.386Z,2.48
2023-05-03T03:35:32.058Z,2.58
2023-05-03T03:38:01.052Z,2.57
2023-05-03T03:40:27.617Z,2.52
2023-05-03T03:42:56.307Z,2.49
2023-05-03T03:45:23.216Z,2.48
2023-05-03T03:47:51.510Z,2.47
2023-05-03T03:50:19.532Z,2.53
2023-05-03T03:52:48.356Z,2.56
2023-05-03T03:55:19.663Z,2.56
2023-05-03T03:57:46.203Z,2.60
2023-05-03T04:00:13.646Z,2.61
2023-05-03T04:02:40.927Z,2.62
2023-05-03T04:05:08.062Z,2.63
2023-05-03T04:07:36.798Z,2.66
2023-05-03T04:10:05.136Z,2.61
2023-05-03T04:12:32.063Z,2.51
2023-05-03T04:14:58.508Z,2.42
2023-05-03T04:17:25.212Z,2.38
2023-05-03T04:19:54.343Z,2.44
2023-05-03T04:22:20.924Z,2.42
2023-05-03T04:24:49.788Z,2.41
2023-05-03T04:27:18.192Z,2.34
2023-05-03T04:29:44.751Z,2.45
2023-05-03T04:32:14.395Z,2.52
2023-05-03T04:34:47.851Z,2.59
2023-05-03T04:37:19.367Z,2.68
2023-05-03T04:39:46.323Z,2.69
2023-05-03T04:42:16.032Z,2.63
2023-05-03T04:44:44.797Z,2.59
2023-05-03T04:47:11.822Z,2.56
2023-05-03T04:49:39.937Z,2.59
2023-05-03T04:52:10.267Z,2.69
2023-05-03T04:54:39.497Z,2.77
2023-05-03T04:57:10.429Z,2.78
2023-05-03T04:59:37.038Z,3.56
2023-05-03T05:02:03.586Z,5.15
2023-05-03T05:04:30.146Z,6.05
2023-05-03T05:06:56.705Z,7.15
2023-05-03T05:09:27.376Z,7.96
2023-05-03T05:11:57.368Z,8.37
2023-05-03T05:14:27.284Z,9.00
2023-05-03T05:16:53.851Z,10.07
2023-05-03T05:19:20.360Z,10.75
2023-05-03T05:21:46.893Z,11.08
2023-05-03T05:24:15.642Z,11.43
2023-05-03T05:26:44.735Z,11.82
2023-05-03T05:29:13.551Z,12.52
2023-05-03T05:31:40.175Z,13.02
2023-05-03T05:34:06.912Z,13.14
2023-05-03T05:36:33.640Z,13.23
2023-05-03T05:39:05.417Z,12.97
2023-05-03T05:41:31.881Z,13.09
2023-05-03T05:43:59.171Z,13.42
2023-05-03T05:46:25.924Z,13.53
2023-05-03T05:48:54.677Z,13.94
2023-05-03T05:51:21.268Z,15.45
2023-05-03T05:53:47.857Z,16.14
2023-05-03T05:56:17.654Z,15.73
2023-05-03T05:58:44.184Z,14.55
2023-05-03T06:01:10.748Z,14.28
2023-05-03T06:03:37.233Z,13.55
2023-05-03T06:06:03.925Z,14.50
2023-05-03T06:08:30.507Z,15.53
2023-05-03T06:10:57.090Z,15.62
2023-05-03T06:13:27.324Z,16.26
2023-05-03T06:15:54.115Z,16.41
2023-05-03T06:18:25.386Z,16.68
2023-05-03T06:20:54.141Z,17.19
2023-05-03T06:23:22.999Z,17.75
2023-05-03T06:25:51.990Z,17.24
2023-05-03T06:28:20.964Z,16.34
2023-05-03T06:30:50.881Z,15.23
2023-05-03T06:33:17.513Z,14.96
2023-05-03T06:35:47.224Z,15.32
2023-05-03T06:38:16.209Z,15.04
2023-05-03T06:40:46.908Z,16.21
2023-05-03T06:43:16.124Z,16.13
2023-05-03T06:45:43.804Z,15.93
2023-05-03T06:48:12.636Z,16.24
2023-05-03T06:50:41.369Z,16.32
2023-05-03T06:53:10.379Z,15.46
2023-05-03T06:55:39.135Z,15.89
2023-05-03T06:58:11.608Z,16.60
2023-05-03T07:00:41.085Z,15.76
2023-05-03T07:03:10.831Z,15.71
2023-05-03T07:05:37.383Z,15.39
2023-05-03T07:08:08.690Z,15.38
2023-05-03T07:10:35.285Z,14.98
2023-05-03T07:13:01.795Z,15.48
2023-05-03T07:15:28.323Z,16.11
2023-05-03T07:17:57.410Z,15.88
2023-05-03T07:20:24.099Z,15.81
2023-05-03T07:22:52.866Z,15.55
2023-05-03T07:25:19.470Z,16.16
2023-05-03T07:27:46.156Z,16.44
2023-05-03T07:30:13.093Z,16.34
2023-05-03T07:32:42.092Z,15.77
2023-05-03T07:35:09.374Z,15.93
2023-05-03T07:37:38.719Z,15.78
2023-05-03T07:40:07.097Z,15.94
2023-05-03T07:42:35.989Z,15.90
2023-05-03T07:45:05.024Z,16.45
2023-05-03T07:47:37.681Z,16.74
2023-05-03T07:50:06.066Z,16.25
2023-05-03T07:52:37.096Z,16.37
2023-05-03T07:55:08.954Z,16.47
2023-05-03T07:57:37.728Z,16.33
2023-05-03T08:00:06.266Z,17.18
2023-05-03T08:02:35.608Z,17.74
2023-05-03T08:05:08.587Z,17.05
2023-05-03T08:07:37.405Z,17.29
2023-05-03T08:10:06.693Z,16.14
2023-05-03T08:12:33.246Z,15.57
2023-05-03T08:15:05.021Z,15.45
2023-05-03T08:17:31.602Z,16.04
2023-05-03T08:19:58.250Z,16.29
2023-05-03T08:22:26.898Z,16.38
2023-05-03T08:24:56.550Z,15.96
2023-05-03T08:27:24.754Z,15.99
2023-05-03T08:29:53.653Z,15.99
2023-05-03T08:32:26.104Z,15.86
2023-05-03T08:34:56.161Z,15.93
2023-05-03T08:37:24.703Z,16.08
2023-05-03T08:39:55.594Z,16.06
2023-05-03T08:42:23.860Z,15.44
2023-05-03T08:44:51.230Z,14.67
2023-05-03T08:47:24.686Z,14.37
2023-05-03T08:49:53.105Z,14.26
2023-05-03T08:52:21.210Z,14.25
2023-05-03T08:54:50.340Z,14.02
2023-05-03T08:57:18.222Z,13.77
2023-05-03T08:59:48.461Z,14.10
2023-05-03T09:02:17.819Z,13.97
2023-05-03T09:04:45.140Z,13.65
2023-05-03T09:07:13.380Z,14.38
2023-05-03T09:09:39.981Z,14.73
2023-05-03T09:12:09.229Z,14.64
2023-05-03T09:14:45.489Z,14.57
2023-05-03T09:17:17.224Z,14.33
2023-05-03T09:19:58.149Z,14.26
2023-05-03T09:22:31.874Z,13.97
2023-05-03T09:25:00.334Z,13.97
2023-05-03T09:27:29.472Z,14.06
2023-05-03T09:29:56.181Z,14.35
2023-05-03T09:32:22.994Z,14.26
2023-05-03T09:34:50.952Z,14.66
2023-05-03T09:37:17.436Z,14.83
2023-05-03T09:39:46.216Z,15.46
2023-05-03T09:42:21.956Z,14.94
2023-05-03T09:44:51.582Z,15.32
2023-05-03T09:47:25.772Z,15.56
2023-05-03T09:49:55.180Z,15.75
2023-05-03T09:52:22.738Z,15.55
2023-05-03T09:54:53.818Z,15.37
2023-05-03T09:57:28.716Z,14.73
2023-05-03T09:59:55.980Z,15.24
2023-05-03T10:02:22.827Z,15.19
2023-05-03T10:04:56.628Z,15.41
2023-05-03T10:07:30.476Z,15.48
2023-05-03T10:09:58.160Z,15.19
2023-05-03T10:12:26.024Z,15.29
2023-05-03T10:14:53.841Z,15.49
2023-05-03T10:17:21.341Z,15.52
2023-05-03T10:19:56.616Z,14.70
2023-05-03T10:22:25.209Z,14.65
2023-05-03T10:25:01.715Z,14.65
2023-05-03T10:27:41.892Z,15.13
2023-05-03T10:30:28.743Z,15.13
2023-05-03T10:32:58.771Z,15.22
2023-05-03T10:35:29.790Z,15.41
2023-05-03T10:37:57.038Z,15.49
2023-05-03T10:40:42.026Z,15.63
2023-05-03T10:43:31.305Z,15.90
2023-05-03T10:46:12.271Z,15.90
2023-05-03T10:48:38.961Z,15.86
2023-05-03T10:51:30.652Z,16.17
2023-05-03T10:53:59.527Z,16.26
2023-05-03T10:56:28.438Z,15.97
2023-05-03T10:58:56.941Z,15.82
2023-05-03T11:01:27.520Z,15.83
2023-05-03T11:04:24.674Z,15.69
2023-05-03T11:06:56.922Z,15.89
2023-05-03T11:09:31.897Z,16.00
2023-05-03T11:12:01.058Z,16.14
2023-05-03T11:14:27.538Z,16.21
2023-05-03T11:16:57.368Z,16.11
2023-05-03T11:19:24.976Z,15.87
2023-05-03T11:21:54.244Z,15.98
2023-05-03T11:24:21.296Z,15.99
2023-05-03T11:26:48.811Z,16.22
2023-05-03T11:29:18.620Z,16.58
2023-05-03T11:31:45.294Z,16.92
2023-05-03T11:34:15.841Z,16.60
2023-05-03T11:36:45.084Z,16.93
2023-05-03T11:39:13.148Z,16.76
2023-05-03T11:41:42.407Z,16.95
2023-05-03T11:44:17.084Z,16.78
2023-05-03T11:46:48.671Z,17.31
2023-05-03T11:49:19.582Z,17.10
2023-05-03T11:51:48.709Z,16.16
2023-05-03T11:54:25.148Z,16.22
2023-05-03T11:56:58.161Z,16.55
2023-05-03T11:59:41.061Z,16.91
2023-05-03T12:02:09.934Z,16.96
2023-05-03T12:04:45.181Z,16.91
2023-05-03T12:07:15.114Z,17.01
2023-05-03T12:09:53.173Z,16.93
2023-05-03T12:12:35.720Z,16.91
2023-05-03T12:15:11.276Z,17.28
2023-05-03T12:17:43.601Z,16.98
2023-05-03T12:22:57.482Z,17.13
2023-05-03T12:25:27.239Z,17.18
2023-05-03T12:28:18.883Z,16.86
2023-05-03T12:30:52.896Z,17.29
2023-05-03T12:33:23.389Z,16.85
2023-05-03T12:35:53.370Z,16.72
2023-05-03T12:38:23.597Z,17.44
2023-05-03T12:40:51.340Z,17.58
2023-05-03T12:43:18.007Z,17.11
2023-05-03T12:45:53.091Z,16.97
2023-05-03T12:48:32.852Z,17.40
2023-05-03T12:51:18.379Z,17.52
2023-05-03T12:53:47.773Z,17.34
2023-05-03T12:56:17.342Z,17.24
2023-05-03T12:59:07.527Z,17.13
2023-05-03T13:06:41.067Z,17.39
2023-05-03T13:09:09.392Z,17.53
2023-05-03T13:11:39.252Z,17.21
2023-05-03T13:14:08.110Z,17.69
2023-05-03T13:16:41.335Z,17.76
2023-05-03T13:19:08.277Z,17.60
2023-05-03T13:21:37.197Z,17.51
2023-05-03T13:24:08.653Z,17.32
2023-05-03T13:26:35.522Z,17.41
2023-05-03T13:29:02.282Z,17.75
2023-05-03T13:31:30.116Z,17.81
2023-05-03T13:33:56.999Z,17.71
2023-05-03T13:36:27.664Z,17.40
2023-05-03T13:38:56.479Z,17.63
2023-05-03T13:41:25.438Z,17.48
2023-05-03T13:43:53.022Z,17.38
2023-05-03T13:46:23.651Z,17.58
2023-05-03T13:48:53.569Z,17.65
2023-05-03T13:51:20.068Z,17.46
2023-05-03T13:53:46.557Z,17.33
2023-05-03T13:56:13.372Z,17.32
2023-05-03T13:58:39.915Z,17.44
2023-05-03T14:01:06.958Z,17.32
2023-05-03T14:03:34.229Z,17.20
2023-05-03T14:06:01.137Z,17.12
2023-05-03T14:08:27.773Z,16.92
2023-05-03T14:10:54.299Z,16.97
2023-05-03T14:13:22.034Z,17.07
2023-05-03T14:15:48.747Z,16.91
2023-05-03T14:18:15.387Z,16.85
2023-05-03T14:20:42.436Z,16.90
2023-05-03T14:23:11.612Z,17.20
2023-05-03T14:25:41.150Z,16.73
2023-05-03T14:28:09.875Z,16.65
2023-05-03T14:30:36.469Z,16.81
2023-05-03T14:33:03.120Z,16.79
2023-05-03T14:35:32.094Z,16.89
2023-05-03T14:37:58.659Z,17.04
2023-05-03T14:40:25.376Z,16.54
2023-05-03T14:42:51.970Z,16.49
2023-05-03T14:45:20.742Z,16.38
2023-05-03T14:47:49.566Z,16.56
2023-05-03T14:50:16.674Z,16.45
2023-05-03T14:52:43.155Z,16.44
2023-05-03T14:55:14.331Z,16.64
2023-05-03T14:57:40.876Z,16.73
2023-05-03T15:00:15.041Z,16.91
2023-05-03T15:02:44.789Z,16.83
2023-05-03T15:05:13.723Z,16.72
2023-05-03T15:07:40.633Z,16.66
2023-05-03T15:10:07.996Z,16.44
2023-05-03T15:12:36.963Z,16.29
2023-05-03T15:15:04.218Z,16.31
2023-05-03T15:17:31.094Z,16.27
2023-05-03T15:20:02.658Z,16.24
2023-05-03T15:22:29.352Z,16.34
2023-05-03T15:24:55.834Z,16.40
2023-05-03T15:27:27.217Z,16.36
2023-05-03T15:29:56.063Z,16.21
2023-05-03T15:32:22.779Z,16.28
2023-05-03T15:34:51.920Z,16.25
2023-05-03T15:37:20.861Z,16.22
2023-05-03T15:39:47.411Z,16.29
2023-05-03T15:42:14.021Z,16.42
2023-05-03T15:44:42.831Z,16.45
2023-05-03T15:47:12.314Z,16.19
2023-05-03T15:49:41.189Z,16.02
2023-05-03T15:52:11.436Z,15.99
2023-05-03T15:54:41.358Z,16.15
2023-05-03T15:57:12.917Z,16.30
2023-05-03T15:59:41.661Z,16.36
2023-05-03T16:02:09.189Z,16.08
2023-05-03T16:04:38.961Z,16.01
2023-05-03T16:07:05.843Z,16.07
2023-05-03T16:09:34.707Z,15.93
2023-05-03T16:12:03.964Z,15.85
2023-05-03T16:14:32.902Z,15.82
2023-05-03T16:17:00.326Z,15.76
2023-05-03T16:19:29.411Z,15.85
2023-05-03T16:21:56.093Z,15.81
2023-05-03T16:24:22.644Z,15.83
2023-05-03T16:26:51.387Z,15.85
2023-05-03T16:29:18.127Z,15.87
2023-05-03T16:31:49.663Z,15.81
2023-05-03T16:34:18.554Z,15.82
2023-05-03T16:36:45.354Z,15.77
2023-05-03T16:39:12.632Z,15.65
2023-05-03T16:41:44.119Z,15.58
2023-05-03T16:44:11.063Z,15.59
2023-05-03T16:46:41.527Z,15.42
2023-05-03T16:49:10.800Z,15.46
2023-05-03T16:51:37.715Z,15.50
2023-05-03T16:54:04.623Z,15.44
2023-05-03T16:56:33.872Z,15.42
2023-05-03T16:59:03.754Z,15.42
2023-05-03T17:01:30.395Z,15.36
2023-05-03T17:03:59.252Z,15.40
2023-05-03T17:06:27.173Z,15.33
2023-05-03T17:08:55.204Z,15.32
2023-05-03T17:11:22.489Z,15.16
2023-05-03T17:13:51.331Z,15.10
2023-05-03T17:16:17.910Z,15.16
2023-05-03T17:18:44.434Z,15.13
2023-05-03T17:21:11.211Z,15.09
2023-05-03T17:23:39.329Z,15.03
2023-05-03T17:26:13.165Z,14.93
2023-05-03T17:28:40.282Z,14.91
2023-05-03T17:31:07.514Z,14.85
2023-05-03T17:33:36.935Z,14.75
2023-05-03T17:36:05.034Z,14.59
2023-05-03T17:38:37.296Z,14.42
2023-05-03T17:41:06.037Z,14.33
2023-05-03T17:43:32.533Z,14.25
2023-05-03T17:46:12.158Z,14.21
2023-05-03T17:48:48.279Z,14.16
2023-05-03T17:51:15.197Z,14.09
2023-05-03T17:53:42.634Z,14.05
2023-05-03T17:56:16.345Z,14.04
2023-05-03T17:58:46.533Z,14.01
2023-05-03T18:01:15.749Z,13.95
2023-05-03T18:03:42.795Z,13.91
2023-05-03T18:06:11.027Z,13.89
2023-05-03T18:08:37.949Z,13.86
2023-05-03T18:11:07.314Z,13.80
2023-05-03T18:13:36.769Z,13.69
2023-05-03T18:16:07.646Z,13.61
2023-05-03T18:18:37.317Z,13.57
2023-05-03T18:21:10.465Z,13.52
2023-05-03T18:23:39.496Z,13.42
2023-05-03T18:26:07.723Z,13.36
2023-05-03T18:28:37.673Z,13.30
2023-05-03T18:31:04.191Z,13.25
2023-05-03T18:33:35.631Z,13.19
2023-05-03T18:36:02.659Z,13.11
2023-05-03T18:38:31.515Z,13.05
2023-05-03T18:40:58.030Z,12.99
2023-05-03T18:43:24.613Z,12.92
2023-05-03T18:45:52.266Z,12.85
2023-05-03T18:48:21.027Z,12.77
2023-05-03T18:50:47.590Z,12.70
2023-05-03T18:53:14.733Z,12.63
2023-05-03T18:55:43.972Z,12.55
2023-05-03T18:58:12.994Z,12.47
2023-05-03T19:00:39.532Z,12.42
2023-05-03T19:03:08.954Z,12.34
2023-05-03T19:05:35.492Z,12.26
2023-05-03T19:08:02.015Z,12.22
2023-05-03T19:10:31.401Z,12.18
2023-05-03T19:13:00.683Z,12.11
2023-05-03T19:15:27.767Z,12.06
2023-05-03T19:17:54.620Z,12.04
2023-05-03T19:20:24.061Z,12.00
2023-05-03T19:22:50.706Z,11.93
2023-05-03T19:25:17.287Z,11.86
2023-05-03T19:27:46.081Z,11.77
2023-05-03T19:30:13.029Z,11.72
2023-05-03T19:32:39.661Z,11.66
2023-05-03T19:35:09.537Z,11.62
2023-05-03T19:37:36.559Z,11.59
2023-05-03T19:40:04.253Z,11.55
2023-05-03T19:42:35.625Z,11.50
2023-05-03T19:45:05.845Z,11.43
2023-05-03T19:47:32.983Z,11.37
2023-05-03T19:49:59.592Z,11.32
2023-05-03T19:52:26.165Z,11.26
2023-05-03T19:54:52.796Z,11.22
2023-05-03T19:57:19.352Z,11.16
2023-05-03T19:59:47.794Z,11.12
2023-05-03T20:02:14.801Z,11.07
2023-05-03T20:04:41.550Z,11.01
2023-05-03T20:07:10.715Z,10.95
2023-05-03T20:09:37.281Z,10.88
2023-05-03T20:12:04.072Z,10.87
2023-05-03T20:14:33.045Z,10.85
2023-05-03T20:17:02.094Z,10.82
2023-05-03T20:19:28.594Z,10.78
2023-05-03T20:21:55.072Z,10.76
2023-05-03T20:24:24.162Z,10.73
2023-05-03T20:26:52.051Z,10.71
2023-05-03T20:29:21.134Z,10.67
2023-05-03T20:31:48.535Z,10.62
2023-05-03T20:34:15.300Z,10.59
2023-05-03T20:36:41.788Z,10.57
2023-05-03T20:39:09.608Z,10.50
2023-05-03T20:41:36.146Z,10.45
2023-05-03T20:44:02.641Z,10.43
2023-05-03T20:46:29.123Z,10.38
2023-05-03T20:48:55.845Z,10.32
2023-05-03T20:51:25.340Z,10.29
2023-05-03T20:53:51.859Z,10.26
2023-05-03T20:56:18.526Z,10.24
2023-05-03T20:58:45.266Z,10.21
2023-05-03T21:01:11.805Z,10.17
2023-05-03T21:03:40.929Z,10.10
2023-05-03T21:06:07.632Z,10.08
2023-05-03T21:08:34.761Z,9.98
2023-05-03T21:11:06.582Z,9.96
2023-05-03T21:13:35.654Z,9.91
2023-05-03T21:16:02.282Z,9.88
2023-05-03T21:18:31.143Z,9.85
2023-05-03T21:20:57.663Z,9.79
2023-05-03T21:23:26.378Z,9.71
2023-05-03T21:25:55.134Z,9.69
2023-05-03T21:28:24.843Z,9.66
2023-05-03T21:30:54.253Z,9.57
2023-05-03T21:33:21.447Z,9.53
2023-05-03T21:35:47.863Z,9.53
2023-05-03T21:38:15.890Z,9.49
2023-05-03T21:40:42.436Z,9.45
2023-05-03T21:43:11.316Z,9.41
2023-05-03T21:45:41.683Z,9.39
2023-05-03T21:48:10.467Z,9.36
2023-05-03T21:50:40.037Z,9.35
2023-05-03T21:53:07.117Z,9.30
2023-05-03T21:55:36.819Z,9.25
2023-05-03T21:58:03.260Z,9.21
2023-05-03T22:00:29.776Z,9.17
2023-05-03T22:02:59.122Z,9.13
2023-05-03T22:05:25.691Z,9.10
2023-05-03T22:07:57.057Z,9.07
2023-05-03T22:10:23.884Z,9.02
2023-05-03T22:12:55.425Z,9.02
2023-05-03T22:15:24.179Z,8.98
2023-05-03T22:17:53.371Z,8.94
2023-05-03T22:20:24.099Z,8.98
2023-05-03T22:22:50.735Z,8.95
2023-05-03T22:25:32.425Z,8.95
2023-05-03T22:27:59.133Z,8.91
2023-05-03T22:30:27.692Z,8.86
2023-05-03T22:32:56.761Z,8.87
2023-05-03T22:35:24.004Z,8.84
2023-05-03T22:37:50.499Z,8.75
2023-05-03T22:40:17.080Z,8.75
2023-05-03T22:42:46.217Z,8.73
2023-05-03T22:45:15.123Z,8.75
2023-05-03T22:47:44.248Z,8.74
2023-05-03T22:50:11.115Z,8.68
2023-05-03T22:52:37.766Z,8.65
2023-05-03T22:55:09.585Z,8.61
2023-05-03T22:57:36.155Z,8.54
2023-05-03T23:00:03.551Z,8.51
2023-05-03T23:02:30.404Z,8.48
2023-05-03T23:04:59.442Z,8.45
2023-05-03T23:07:26.739Z,8.47
2023-05-03T23:10:07.453Z,8.49
2023-05-03T23:12:34.285Z,8.48
2023-05-03T23:15:03.208Z,8.47
2023-05-03T23:17:29.734Z,8.42
2023-05-03T23:19:58.591Z,8.41
2023-05-03T23:22:25.233Z,8.37
2023-05-03T23:24:51.697Z,8.31
2023-05-03T23:27:18.173Z,8.30
2023-05-03T23:29:47.201Z,8.21
2023-05-03T23:32:19.018Z,8.17
2023-05-03T23:34:50.830Z,8.14
2023-05-03T23:37:19.740Z,8.13
2023-05-03T23:39:46.844Z,8.11
2023-05-03T23:42:13.499Z,8.06
2023-05-03T23:44:53.709Z,8.03
2023-05-03T23:47:21.476Z,7.97
2023-05-03T23:49:50.065Z,7.97
2023-05-03T23:52:20.381Z,7.95
2023-05-03T23:54:53.541Z,7.93
2023-05-03T23:57:20.105Z,7.91
2023-05-03T23:59:49.569Z,7.89
